sensor_id;sensor_type;location;lat;lon;timestamp;pressure;altitude;pressure_sealevel;temperature;humidity
40794;BME280;26502;51.886;15.604;2023-06-14T00:00:16;100870.83;;;11.96;57.70
40794;BME280;26502;51.886;15.604;2023-06-14T00:05:41;100868.86;;;11.95;57.82
40794;BME280;26502;51.886;15.604;2023-06-14T00:10:48;100869.09;;;11.94;57.96
40794;BME280;26502;51.886;15.604;2023-06-14T00:15:53;100870.17;;;11.93;58.22
40794;BME280;26502;51.886;15.604;2023-06-14T00:21:00;100865.88;;;11.94;58.17
40794;BME280;26502;51.886;15.604;2023-06-14T00:26:06;100864.86;;;11.92;58.03
40794;BME280;26502;51.886;15.604;2023-06-14T00:31:12;100866.47;;;11.92;58.12
40794;BME280;26502;51.886;15.604;2023-06-14T00:36:18;100861.78;;;11.94;58.15
40794;BME280;26502;51.886;15.604;2023-06-14T00:41:24;100858.24;;;11.93;58.17
40794;BME280;26502;51.886;15.604;2023-06-14T00:46:31;100855.43;;;11.92;58.13
40794;BME280;26502;51.886;15.604;2023-06-14T00:51:37;100860.57;;;11.88;58.22
40794;BME280;26502;51.886;15.604;2023-06-14T00:56:45;100856.19;;;11.70;58.42
40794;BME280;26502;51.886;15.604;2023-06-14T01:01:50;100861.33;;;11.60;58.75
40794;BME280;26502;51.886;15.604;2023-06-14T01:07:02;100865.14;;;11.53;58.69
40794;BME280;26502;51.886;15.604;2023-06-14T01:12:27;100863.96;;;11.40;58.78
40794;BME280;26502;51.886;15.604;2023-06-14T01:17:37;100860.56;;;11.35;58.73
40794;BME280;26502;51.886;15.604;2023-06-14T01:22:52;100853.33;;;11.33;58.70
40794;BME280;26502;51.886;15.604;2023-06-14T01:28:00;100854.84;;;11.36;58.88
40794;BME280;26502;51.886;15.604;2023-06-14T01:33:08;100850.42;;;11.30;59.00
40794;BME280;26502;51.886;15.604;2023-06-14T01:38:15;100841.23;;;11.17;59.23
40794;BME280;26502;51.886;15.604;2023-06-14T01:43:23;100844.98;;;11.16;59.19
40794;BME280;26502;51.886;15.604;2023-06-14T01:48:30;100850.81;;;11.18;58.95
40794;BME280;26502;51.886;15.604;2023-06-14T01:53:36;100849.80;;;11.05;59.17
40794;BME280;26502;51.886;15.604;2023-06-14T01:58:42;100848.94;;;10.98;59.44
40794;BME280;26502;51.886;15.604;2023-06-14T02:03:48;100849.93;;;10.89;59.41
40794;BME280;26502;51.886;15.604;2023-06-14T02:08:55;100845.39;;;10.81;59.60
40794;BME280;26502;51.886;15.604;2023-06-14T02:14:02;100854.53;;;10.72;59.65
40794;BME280;26502;51.886;15.604;2023-06-14T02:19:07;100861.88;;;10.65;59.77
40794;BME280;26502;51.886;15.604;2023-06-14T02:24:15;100863.83;;;10.58;59.68
40794;BME280;26502;51.886;15.604;2023-06-14T02:29:20;100857.58;;;10.54;59.99
40794;BME280;26502;51.886;15.604;2023-06-14T02:34:26;100860.39;;;10.48;59.89
40794;BME280;26502;51.886;15.604;2023-06-14T02:39:32;100859.03;;;10.46;59.99
40794;BME280;26502;51.886;15.604;2023-06-14T02:44:38;100864.73;;;10.45;60.40
40794;BME280;26502;51.886;15.604;2023-06-14T02:49:44;100866.00;;;10.45;60.51
40794;BME280;26502;51.886;15.604;2023-06-14T02:54:52;100861.84;;;10.48;60.68
40794;BME280;26502;51.886;15.604;2023-06-14T02:59:58;100856.86;;;10.54;60.96
40794;BME280;26502;51.886;15.604;2023-06-14T03:05:06;100858.14;;;10.64;61.16
40794;BME280;26502;51.886;15.604;2023-06-14T03:10:13;100852.02;;;10.67;61.18
40794;BME280;26502;51.886;15.604;2023-06-14T03:15:19;100853.64;;;10.72;61.35
40794;BME280;26502;51.886;15.604;2023-06-14T03:20:28;100853.24;;;10.80;61.42
40794;BME280;26502;51.886;15.604;2023-06-14T03:25:34;100850.10;;;10.84;61.31
40794;BME280;26502;51.886;15.604;2023-06-14T03:30:43;100856.52;;;10.88;61.30
40794;BME280;26502;51.886;15.604;2023-06-14T03:35:49;100859.45;;;10.97;61.36
40794;BME280;26502;51.886;15.604;2023-06-14T03:40:55;100862.95;;;11.10;61.54
40794;BME280;26502;51.886;15.604;2023-06-14T03:46:01;100864.68;;;11.12;61.53
40794;BME280;26502;51.886;15.604;2023-06-14T03:51:08;100866.98;;;11.07;61.99
40794;BME280;26502;51.886;15.604;2023-06-14T03:56:15;100872.40;;;11.15;62.33
40794;BME280;26502;51.886;15.604;2023-06-14T04:01:21;100874.11;;;11.28;62.39
40794;BME280;26502;51.886;15.604;2023-06-14T04:06:30;100875.84;;;11.41;62.42
40794;BME280;26502;51.886;15.604;2023-06-14T04:11:37;100877.76;;;11.58;62.48
40794;BME280;26502;51.886;15.604;2023-06-14T04:16:43;100875.56;;;11.71;62.36
40794;BME280;26502;51.886;15.604;2023-06-14T04:21:49;100870.61;;;11.80;62.60
40794;BME280;26502;51.886;15.604;2023-06-14T04:26:56;100871.22;;;11.94;62.62
40794;BME280;26502;51.886;15.604;2023-06-14T04:32:03;100873.71;;;12.05;62.59
40794;BME280;26502;51.886;15.604;2023-06-14T04:37:10;100876.70;;;12.16;62.88
40794;BME280;26502;51.886;15.604;2023-06-14T04:42:19;100885.27;;;12.30;63.13
40794;BME280;26502;51.886;15.604;2023-06-14T04:47:26;100885.46;;;12.44;63.56
40794;BME280;26502;51.886;15.604;2023-06-14T04:52:35;100882.59;;;12.49;64.02
40794;BME280;26502;51.886;15.604;2023-06-14T04:57:42;100881.52;;;12.68;64.30
40794;BME280;26502;51.886;15.604;2023-06-14T05:02:48;100881.44;;;12.89;64.48
40794;BME280;26502;51.886;15.604;2023-06-14T05:07:58;100878.73;;;13.08;64.57
40794;BME280;26502;51.886;15.604;2023-06-14T05:13:04;100875.98;;;13.28;64.78
40794;BME280;26502;51.886;15.604;2023-06-14T05:18:10;100870.73;;;13.45;64.92
40794;BME280;26502;51.886;15.604;2023-06-14T05:23:17;100865.23;;;13.61;64.97
40794;BME280;26502;51.886;15.604;2023-06-14T05:28:23;100870.04;;;13.74;64.92
40794;BME280;26502;51.886;15.604;2023-06-14T05:33:29;100881.52;;;13.85;64.96
40794;BME280;26502;51.886;15.604;2023-06-14T05:38:35;100886.74;;;13.96;64.97
40794;BME280;26502;51.886;15.604;2023-06-14T05:43:40;100895.89;;;14.07;65.03
40794;BME280;26502;51.886;15.604;2023-06-14T05:48:46;100899.23;;;14.17;65.00
40794;BME280;26502;51.886;15.604;2023-06-14T05:53:52;100901.83;;;14.23;64.94
40794;BME280;26502;51.886;15.604;2023-06-14T05:58:58;100901.77;;;14.16;64.95
40794;BME280;26502;51.886;15.604;2023-06-14T06:04:04;100900.94;;;14.11;65.07
40794;BME280;26502;51.886;15.604;2023-06-14T06:09:11;100899.95;;;14.17;65.13
40794;BME280;26502;51.886;15.604;2023-06-14T06:14:16;100902.58;;;14.27;65.29
40794;BME280;26502;51.886;15.604;2023-06-14T06:19:22;100910.11;;;14.34;65.37
40794;BME280;26502;51.886;15.604;2023-06-14T06:24:28;100912.26;;;14.42;65.36
40794;BME280;26502;51.886;15.604;2023-06-14T06:29:34;100916.46;;;14.44;65.33
40794;BME280;26502;51.886;15.604;2023-06-14T06:34:40;100916.23;;;14.45;65.22
40794;BME280;26502;51.886;15.604;2023-06-14T06:39:46;100922.09;;;14.46;65.27
40794;BME280;26502;51.886;15.604;2023-06-14T06:44:52;100922.95;;;14.50;65.43
40794;BME280;26502;51.886;15.604;2023-06-14T06:49:58;100924.02;;;14.54;65.52
40794;BME280;26502;51.886;15.604;2023-06-14T06:55:04;100932.33;;;14.61;65.50
40794;BME280;26502;51.886;15.604;2023-06-14T07:00:11;100937.95;;;14.67;65.64
40794;BME280;26502;51.886;15.604;2023-06-14T07:05:17;100934.96;;;14.78;65.70
40794;BME280;26502;51.886;15.604;2023-06-14T07:10:23;100935.95;;;14.95;65.57
40794;BME280;26502;51.886;15.604;2023-06-14T07:15:29;100941.11;;;15.11;65.43
40794;BME280;26502;51.886;15.604;2023-06-14T07:20:35;100945.78;;;15.23;65.42
40794;BME280;26502;51.886;15.604;2023-06-14T07:25:43;100940.69;;;15.54;65.44
40794;BME280;26502;51.886;15.604;2023-06-14T07:30:49;100936.86;;;16.03;65.00
40794;BME280;26502;51.886;15.604;2023-06-14T07:35:54;100936.98;;;16.14;64.49
40794;BME280;26502;51.886;15.604;2023-06-14T07:41:00;100938.23;;;16.08;64.07
40794;BME280;26502;51.886;15.604;2023-06-14T07:46:06;100936.41;;;16.01;64.07
40794;BME280;26502;51.886;15.604;2023-06-14T07:51:14;100939.73;;;16.03;64.00
40794;BME280;26502;51.886;15.604;2023-06-14T07:56:20;100945.19;;;16.08;63.72
40794;BME280;26502;51.886;15.604;2023-06-14T08:01:25;100943.40;;;16.08;63.71
40794;BME280;26502;51.886;15.604;2023-06-14T08:06:32;100947.34;;;16.12;63.50
40794;BME280;26502;51.886;15.604;2023-06-14T08:11:39;100946.95;;;16.19;63.46
40794;BME280;26502;51.886;15.604;2023-06-14T08:16:45;100947.33;;;16.25;63.18
40794;BME280;26502;51.886;15.604;2023-06-14T08:21:51;100945.33;;;16.23;63.03
40794;BME280;26502;51.886;15.604;2023-06-14T08:26:58;100944.16;;;16.24;62.98
40794;BME280;26502;51.886;15.604;2023-06-14T08:32:08;100952.95;;;16.10;62.91
40794;BME280;26502;51.886;15.604;2023-06-14T08:37:13;100956.23;;;16.13;62.97
40794;BME280;26502;51.886;15.604;2023-06-14T08:42:20;100956.20;;;16.20;62.80
40794;BME280;26502;51.886;15.604;2023-06-14T08:47:27;100959.65;;;16.23;62.84
40794;BME280;26502;51.886;15.604;2023-06-14T08:52:36;100958.55;;;16.30;62.85
40794;BME280;26502;51.886;15.604;2023-06-14T08:57:44;100955.17;;;16.37;62.72
40794;BME280;26502;51.886;15.604;2023-06-14T09:02:51;100955.30;;;16.52;62.79
40794;BME280;26502;51.886;15.604;2023-06-14T09:08:02;100947.33;;;16.87;62.60
40794;BME280;26502;51.886;15.604;2023-06-14T09:13:09;100951.77;;;17.14;62.22
40794;BME280;26502;51.886;15.604;2023-06-14T09:18:15;100952.51;;;17.36;61.95
40794;BME280;26502;51.886;15.604;2023-06-14T09:23:23;100952.14;;;17.43;61.69
40794;BME280;26502;51.886;15.604;2023-06-14T09:28:29;100952.98;;;17.41;61.26
40794;BME280;26502;51.886;15.604;2023-06-14T09:33:36;100961.99;;;17.30;60.91
40794;BME280;26502;51.886;15.604;2023-06-14T09:38:43;100961.62;;;17.27;60.94
40794;BME280;26502;51.886;15.604;2023-06-14T09:43:56;100956.45;;;17.40;61.06
40794;BME280;26502;51.886;15.604;2023-06-14T09:49:05;100956.94;;;17.44;60.67
40794;BME280;26502;51.886;15.604;2023-06-14T09:54:15;100954.85;;;17.64;60.55
40794;BME280;26502;51.886;15.604;2023-06-14T09:59:27;100959.80;;;17.88;60.34
40794;BME280;26502;51.886;15.604;2023-06-14T10:04:36;100960.72;;;18.00;60.02
40794;BME280;26502;51.886;15.604;2023-06-14T10:09:43;100955.86;;;17.94;59.36
40794;BME280;26502;51.886;15.604;2023-06-14T10:14:54;100954.78;;;18.00;59.27
40794;BME280;26502;51.886;15.604;2023-06-14T10:20:21;100950.48;;;18.24;59.00
40794;BME280;26502;51.886;15.604;2023-06-14T10:25:30;100943.98;;;18.75;58.88
40794;BME280;26502;51.886;15.604;2023-06-14T10:30:36;100934.94;;;19.32;58.22
40794;BME280;26502;51.886;15.604;2023-06-14T10:35:42;100934.73;;;19.44;57.31
40794;BME280;26502;51.886;15.604;2023-06-14T10:40:53;100927.52;;;19.58;56.94
40794;BME280;26502;51.886;15.604;2023-06-14T10:46:17;100920.36;;;19.82;56.32
40794;BME280;26502;51.886;15.604;2023-06-14T10:51:31;100918.26;;;19.81;56.22
40794;BME280;26502;51.886;15.604;2023-06-14T10:56:50;100911.98;;;19.86;55.66
40794;BME280;26502;51.886;15.604;2023-06-14T11:02:04;100907.94;;;19.82;55.37
40794;BME280;26502;51.886;15.604;2023-06-14T11:07:30;100912.39;;;19.80;55.00
40794;BME280;26502;51.886;15.604;2023-06-14T11:12:46;100911.83;;;19.66;54.78
40794;BME280;26502;51.886;15.604;2023-06-14T11:17:53;100918.45;;;19.45;54.72
40794;BME280;26502;51.886;15.604;2023-06-14T11:23:00;100923.75;;;19.08;55.66
40794;BME280;26502;51.886;15.604;2023-06-14T11:28:07;100929.84;;;18.73;57.03
40794;BME280;26502;51.886;15.604;2023-06-14T11:33:14;100924.95;;;18.33;57.58
40794;BME280;26502;51.886;15.604;2023-06-14T11:38:22;100916.55;;;17.62;58.85
40794;BME280;26502;51.886;15.604;2023-06-14T11:43:28;100911.42;;;17.39;60.65
40794;BME280;26502;51.886;15.604;2023-06-14T11:48:40;100909.92;;;17.74;61.64
40794;BME280;26502;51.886;15.604;2023-06-14T11:53:47;100905.85;;;18.04;61.89
40794;BME280;26502;51.886;15.604;2023-06-14T11:58:53;100901.31;;;18.75;62.31
40794;BME280;26502;51.886;15.604;2023-06-14T12:04:01;100895.46;;;19.47;61.90
40794;BME280;26502;51.886;15.604;2023-06-14T12:09:08;100890.52;;;20.39;62.00
40794;BME280;26502;51.886;15.604;2023-06-14T12:14:17;100887.41;;;20.60;60.97
40794;BME280;26502;51.886;15.604;2023-06-14T12:19:27;100881.81;;;20.72;60.80
40794;BME280;26502;51.886;15.604;2023-06-14T12:24:33;100878.89;;;21.08;59.79
40794;BME280;26502;51.886;15.604;2023-06-14T12:29:39;100875.14;;;20.98;59.43
40794;BME280;26502;51.886;15.604;2023-06-14T12:34:45;100873.88;;;20.90;59.91
40794;BME280;26502;51.886;15.604;2023-06-14T12:39:51;100879.03;;;20.79;60.16
40794;BME280;26502;51.886;15.604;2023-06-14T12:44:56;100885.14;;;20.79;59.95
40794;BME280;26502;51.886;15.604;2023-06-14T12:50:02;100886.59;;;20.92;59.55
40794;BME280;26502;51.886;15.604;2023-06-14T12:55:09;100884.30;;;20.98;58.52
40794;BME280;26502;51.886;15.604;2023-06-14T13:00:17;100884.04;;;20.79;57.83
40794;BME280;26502;51.886;15.604;2023-06-14T13:05:22;100882.63;;;20.77;57.39
40794;BME280;26502;51.886;15.604;2023-06-14T13:10:28;100876.41;;;20.73;57.43
40794;BME280;26502;51.886;15.604;2023-06-14T13:15:34;100874.46;;;20.69;57.13
40794;BME280;26502;51.886;15.604;2023-06-14T13:20:40;100868.73;;;20.69;56.99
40794;BME280;26502;51.886;15.604;2023-06-14T13:25:46;100859.60;;;20.73;57.10
40794;BME280;26502;51.886;15.604;2023-06-14T13:30:52;100854.85;;;20.86;56.69
40794;BME280;26502;51.886;15.604;2023-06-14T13:36:00;100854.30;;;20.99;55.92
40794;BME280;26502;51.886;15.604;2023-06-14T13:41:05;100851.80;;;21.11;55.87
40794;BME280;26502;51.886;15.604;2023-06-14T13:46:11;100850.17;;;21.11;55.32
40794;BME280;26502;51.886;15.604;2023-06-14T13:51:17;100844.53;;;21.09;54.95
40794;BME280;26502;51.886;15.604;2023-06-14T13:56:23;100844.29;;;21.22;54.62
40794;BME280;26502;51.886;15.604;2023-06-14T14:01:30;100842.08;;;21.18;54.03
40794;BME280;26502;51.886;15.604;2023-06-14T14:06:35;100838.07;;;21.25;54.19
40794;BME280;26502;51.886;15.604;2023-06-14T14:11:41;100834.11;;;21.35;53.43
40794;BME280;26502;51.886;15.604;2023-06-14T14:16:47;100829.76;;;21.49;53.25
40794;BME280;26502;51.886;15.604;2023-06-14T14:21:53;100828.89;;;21.68;52.50
40794;BME280;26502;51.886;15.604;2023-06-14T14:26:59;100827.73;;;21.86;52.08
40794;BME280;26502;51.886;15.604;2023-06-14T14:32:06;100823.43;;;21.97;51.65
40794;BME280;26502;51.886;15.604;2023-06-14T14:37:12;100826.63;;;22.00;51.67
40794;BME280;26502;51.886;15.604;2023-06-14T14:42:19;100819.41;;;22.00;50.73
40794;BME280;26502;51.886;15.604;2023-06-14T14:47:25;100821.89;;;21.96;50.76
40794;BME280;26502;51.886;15.604;2023-06-14T14:52:31;100819.80;;;21.95;50.21
40794;BME280;26502;51.886;15.604;2023-06-14T14:57:37;100818.79;;;21.73;49.90
40794;BME280;26502;51.886;15.604;2023-06-14T15:02:43;100817.29;;;21.62;49.91
40794;BME280;26502;51.886;15.604;2023-06-14T15:07:48;100819.73;;;21.58;50.01
40794;BME280;26502;51.886;15.604;2023-06-14T15:12:54;100816.42;;;21.54;50.01
40794;BME280;26502;51.886;15.604;2023-06-14T15:18:00;100811.33;;;21.50;49.97
40794;BME280;26502;51.886;15.604;2023-06-14T15:23:06;100814.74;;;21.52;50.05
40794;BME280;26502;51.886;15.604;2023-06-14T15:28:12;100811.70;;;21.54;49.91
40794;BME280;26502;51.886;15.604;2023-06-14T15:33:18;100808.36;;;21.53;50.06
40794;BME280;26502;51.886;15.604;2023-06-14T15:38:25;100806.59;;;21.50;49.80
40794;BME280;26502;51.886;15.604;2023-06-14T15:43:31;100802.61;;;21.43;49.16
40794;BME280;26502;51.886;15.604;2023-06-14T15:48:37;100803.70;;;21.35;49.45
40794;BME280;26502;51.886;15.604;2023-06-14T15:53:42;100804.55;;;21.32;49.13
40794;BME280;26502;51.886;15.604;2023-06-14T15:58:49;100803.70;;;21.33;48.82
40794;BME280;26502;51.886;15.604;2023-06-14T16:03:55;100804.02;;;21.53;49.30
40794;BME280;26502;51.886;15.604;2023-06-14T16:09:01;100810.39;;;21.69;49.63
40794;BME280;26502;51.886;15.604;2023-06-14T16:14:08;100813.23;;;21.79;49.55
40794;BME280;26502;51.886;15.604;2023-06-14T16:19:14;100810.48;;;21.77;49.31
40794;BME280;26502;51.886;15.604;2023-06-14T16:24:20;100809.84;;;21.74;49.37
40794;BME280;26502;51.886;15.604;2023-06-14T16:29:25;100809.15;;;21.80;50.03
40794;BME280;26502;51.886;15.604;2023-06-14T16:34:31;100811.47;;;21.88;49.76
40794;BME280;26502;51.886;15.604;2023-06-14T16:39:39;100814.62;;;21.82;50.03
40794;BME280;26502;51.886;15.604;2023-06-14T16:44:45;100814.70;;;21.75;50.21
40794;BME280;26502;51.886;15.604;2023-06-14T16:49:51;100807.13;;;21.33;49.62
40794;BME280;26502;51.886;15.604;2023-06-14T16:54:56;100807.95;;;21.25;50.31
40794;BME280;26502;51.886;15.604;2023-06-14T17:00:02;100812.70;;;21.29;50.68
40794;BME280;26502;51.886;15.604;2023-06-14T17:05:10;100815.58;;;21.12;50.43
40794;BME280;26502;51.886;15.604;2023-06-14T17:10:15;100809.56;;;21.04;50.57
40794;BME280;26502;51.886;15.604;2023-06-14T17:15:21;100809.09;;;21.00;50.55
40794;BME280;26502;51.886;15.604;2023-06-14T17:20:27;100811.84;;;20.97;50.37
40794;BME280;26502;51.886;15.604;2023-06-14T17:25:33;100813.16;;;20.81;50.15
40794;BME280;26502;51.886;15.604;2023-06-14T17:30:39;100814.55;;;20.82;50.28
40794;BME280;26502;51.886;15.604;2023-06-14T17:35:44;100819.23;;;20.87;50.15
40794;BME280;26502;51.886;15.604;2023-06-14T17:40:50;100823.82;;;21.03;50.21
40794;BME280;26502;51.886;15.604;2023-06-14T17:45:56;100826.36;;;20.98;50.21
40794;BME280;26502;51.886;15.604;2023-06-14T17:51:03;100818.38;;;20.84;50.04
40794;BME280;26502;51.886;15.604;2023-06-14T17:56:08;100823.00;;;20.97;50.59
40794;BME280;26502;51.886;15.604;2023-06-14T18:01:14;100827.18;;;21.16;50.87
40794;BME280;26502;51.886;15.604;2023-06-14T18:06:21;100832.57;;;21.09;51.23
40794;BME280;26502;51.886;15.604;2023-06-14T18:11:27;100833.64;;;21.02;51.68
40794;BME280;26502;51.886;15.604;2023-06-14T18:16:34;100837.86;;;20.91;51.80
40794;BME280;26502;51.886;15.604;2023-06-14T18:21:40;100843.32;;;20.76;51.99
40794;BME280;26502;51.886;15.604;2023-06-14T18:26:46;100847.66;;;20.61;52.38
40794;BME280;26502;51.886;15.604;2023-06-14T18:31:52;100848.91;;;20.27;52.92
40794;BME280;26502;51.886;15.604;2023-06-14T18:36:58;100852.48;;;20.05;53.63
40794;BME280;26502;51.886;15.604;2023-06-14T18:42:06;100847.77;;;19.71;54.36
40794;BME280;26502;51.886;15.604;2023-06-14T18:47:12;100844.77;;;19.43;55.12
40794;BME280;26502;51.886;15.604;2023-06-14T18:52:18;100846.23;;;19.23;55.65
40794;BME280;26502;51.886;15.604;2023-06-14T18:57:24;100852.40;;;19.31;56.15
40794;BME280;26502;51.886;15.604;2023-06-14T19:02:30;100855.94;;;19.21;56.50
40794;BME280;26502;51.886;15.604;2023-06-14T19:07:36;100853.73;;;19.10;56.91
40794;BME280;26502;51.886;15.604;2023-06-14T19:12:42;100855.02;;;18.99;57.05
40794;BME280;26502;51.886;15.604;2023-06-14T19:17:58;100859.46;;;18.92;57.40
40794;BME280;26502;51.886;15.604;2023-06-14T19:23:04;100856.88;;;18.84;57.73
40794;BME280;26502;51.886;15.604;2023-06-14T19:28:10;100859.64;;;18.46;57.65
40794;BME280;26502;51.886;15.604;2023-06-14T19:33:16;100853.67;;;18.02;57.99
40794;BME280;26502;51.886;15.604;2023-06-14T19:38:24;100854.34;;;17.91;58.67
40794;BME280;26502;51.886;15.604;2023-06-14T19:43:31;100852.52;;;18.15;59.12
40794;BME280;26502;51.886;15.604;2023-06-14T19:48:39;100866.38;;;18.15;59.53
40794;BME280;26502;51.886;15.604;2023-06-14T19:53:45;100868.16;;;18.12;59.55
40794;BME280;26502;51.886;15.604;2023-06-14T19:58:51;100871.48;;;18.08;60.09
40794;BME280;26502;51.886;15.604;2023-06-14T20:03:56;100873.53;;;17.98;60.33
40794;BME280;26502;51.886;15.604;2023-06-14T20:09:02;100876.47;;;17.90;60.45
40794;BME280;26502;51.886;15.604;2023-06-14T20:14:13;100874.16;;;17.84;60.66
40794;BME280;26502;51.886;15.604;2023-06-14T20:19:18;100872.54;;;17.66;60.69
40794;BME280;26502;51.886;15.604;2023-06-14T20:24:25;100873.80;;;17.62;61.02
40794;BME280;26502;51.886;15.604;2023-06-14T20:29:31;100882.34;;;17.63;61.15
40794;BME280;26502;51.886;15.604;2023-06-14T20:34:36;100883.87;;;17.56;61.15
40794;BME280;26502;51.886;15.604;2023-06-14T20:39:42;100883.30;;;17.41;61.32
40794;BME280;26502;51.886;15.604;2023-06-14T20:44:48;100883.63;;;17.32;61.44
40794;BME280;26502;51.886;15.604;2023-06-14T20:49:54;100881.29;;;17.19;61.89
40794;BME280;26502;51.886;15.604;2023-06-14T20:55:00;100878.55;;;17.07;61.83
40794;BME280;26502;51.886;15.604;2023-06-14T21:00:08;100878.69;;;16.92;61.82
40794;BME280;26502;51.886;15.604;2023-06-14T21:05:14;100878.23;;;16.84;62.19
40794;BME280;26502;51.886;15.604;2023-06-14T21:10:20;100879.86;;;16.74;62.19
40794;BME280;26502;51.886;15.604;2023-06-14T21:15:26;100884.05;;;16.63;62.24
40794;BME280;26502;51.886;15.604;2023-06-14T21:20:33;100888.95;;;16.65;62.29
40794;BME280;26502;51.886;15.604;2023-06-14T21:25:38;100890.98;;;16.61;62.53
40794;BME280;26502;51.886;15.604;2023-06-14T21:30:44;100894.58;;;16.60;62.72
40794;BME280;26502;51.886;15.604;2023-06-14T21:35:50;100895.38;;;16.56;62.82
40794;BME280;26502;51.886;15.604;2023-06-14T21:40:56;100893.73;;;16.53;62.99
40794;BME280;26502;51.886;15.604;2023-06-14T21:46:02;100891.29;;;16.48;62.86
40794;BME280;26502;51.886;15.604;2023-06-14T21:51:09;100891.77;;;16.39;62.93
40794;BME280;26502;51.886;15.604;2023-06-14T21:56:15;100892.14;;;16.32;63.03
40794;BME280;26502;51.886;15.604;2023-06-14T22:01:20;100889.85;;;16.28;63.32
40794;BME280;26502;51.886;15.604;2023-06-14T22:06:26;100891.36;;;16.20;63.20
40794;BME280;26502;51.886;15.604;2023-06-14T22:11:33;100888.41;;;16.11;63.66
40794;BME280;26502;51.886;15.604;2023-06-14T22:16:39;100889.48;;;16.11;63.71
40794;BME280;26502;51.886;15.604;2023-06-14T22:21:46;100887.48;;;16.05;63.73
40794;BME280;26502;51.886;15.604;2023-06-14T22:26:55;100890.08;;;15.96;63.87
40794;BME280;26502;51.886;15.604;2023-06-14T22:32:04;100884.60;;;16.02;63.91
40794;BME280;26502;51.886;15.604;2023-06-14T22:37:10;100882.97;;;15.99;64.16
40794;BME280;26502;51.886;15.604;2023-06-14T22:42:19;100883.41;;;15.93;64.17
40794;BME280;26502;51.886;15.604;2023-06-14T22:47:28;100880.66;;;15.91;64.25
40794;BME280;26502;51.886;15.604;2023-06-14T22:52:34;100878.58;;;16.00;64.33
40794;BME280;26502;51.886;15.604;2023-06-14T22:57:44;100880.11;;;15.95;64.23
40794;BME280;26502;51.886;15.604;2023-06-14T23:02:50;100873.89;;;15.90;64.30
40794;BME280;26502;51.886;15.604;2023-06-14T23:07:56;100876.07;;;15.83;64.35
40794;BME280;26502;51.886;15.604;2023-06-14T23:13:02;100868.73;;;15.79;64.42
40794;BME280;26502;51.886;15.604;2023-06-14T23:18:08;100865.40;;;15.85;64.68
40794;BME280;26502;51.886;15.604;2023-06-14T23:23:15;100863.54;;;15.80;64.42
40794;BME280;26502;51.886;15.604;2023-06-14T23:28:20;100859.13;;;15.70;64.68
40794;BME280;26502;51.886;15.604;2023-06-14T23:33:27;100859.13;;;15.70;64.80
40794;BME280;26502;51.886;15.604;2023-06-14T23:38:33;100858.63;;;15.62;64.76
40794;BME280;26502;51.886;15.604;2023-06-14T23:43:46;100858.33;;;15.61;64.94
40794;BME280;26502;51.886;15.604;2023-06-14T23:48:56;100860.99;;;15.65;64.99
40794;BME280;26502;51.886;15.604;2023-06-14T23:54:01;100866.91;;;15.62;64.95
40794;BME280;26502;51.886;15.604;2023-06-14T23:59:07;100861.69;;;15.62;65.19
